Time;durP1;ratioP1;P1;durP2;ratioP2;P2;SDS_P1;SDS_P2;PMS_P1;PMS_P2;Temp;Humidity;BMP_temperature;BMP_pressure;BME280_temperature;BME280_humidity;BME280_pressure;Samples;Min_cycle;Max_cycle;Signal;HPM_P1;HPM_P2
2022/10/09 00:01:30;;;;;;;8.88;1.50;;;8.70;99.90;;;;;;5126285;27;20710;-66
2022/10/09 00:03:57;;;;;;;9.40;1.60;;;8.70;99.90;;;;;;5129408;27;20053;-66
2022/10/09 00:06:33;;;;;;;6.15;1.77;;;8.70;99.90;;;;;;5132702;27;20043;-66
2022/10/09 00:09:00;;;;;;;8.13;1.70;;;8.60;99.90;;;;;;5117887;27;20121;-66
2022/10/09 00:11:28;;;;;;;9.30;1.92;;;8.60;99.90;;;;;;5115989;27;20106;-66
2022/10/09 00:13:55;;;;;;;13.45;1.75;;;8.60;99.90;;;;;;5150085;27;20047;-74
2022/10/09 00:16:22;;;;;;;7.53;1.75;;;8.60;99.90;;;;;;5130448;27;20161;-66
2022/10/09 00:18:48;;;;;;;9.85;1.98;;;8.50;99.90;;;;;;5138285;27;20059;-66
2022/10/09 00:21:24;;;;;;;8.35;1.75;;;8.50;99.90;;;;;;5108758;27;20092;-70
2022/10/09 00:23:51;;;;;;;5.75;1.90;;;8.50;99.90;;;;;;5149459;27;20127;-66
2022/10/09 00:26:18;;;;;;;5.80;1.50;;;8.50;99.90;;;;;;5150531;27;20042;-67
2022/10/09 00:28:44;;;;;;;7.95;2.03;;;8.50;99.90;;;;;;5150012;27;20042;-68
2022/10/09 00:31:10;;;;;;;6.53;1.48;;;8.50;99.90;;;;;;5149346;27;20102;-66
2022/10/09 00:33:36;;;;;;;8.30;2.00;;;8.40;99.90;;;;;;5149088;27;20483;-65
2022/10/09 00:36:16;;;;;;;10.82;1.70;;;8.50;99.90;;;;;;5137203;27;20110;-66
2022/10/09 00:38:42;;;;;;;5.93;1.67;;;8.50;99.90;;;;;;5149713;27;20070;-65
2022/10/09 00:41:15;;;;;;;13.50;2.38;;;8.50;99.90;;;;;;5148240;27;20042;-66
2022/10/09 00:43:49;;;;;;;10.20;1.63;;;8.50;99.90;;;;;;5130183;27;20039;-66
2022/10/09 00:46:44;;;;;;;5.03;1.63;;;8.50;99.90;;;;;;5148844;27;20332;-66
2022/10/09 00:49:19;;;;;;;7.35;1.40;;;8.60;99.90;;;;;;5135173;27;20039;-66
2022/10/09 00:51:48;;;;;;;13.43;2.20;;;8.60;99.90;;;;;;5128161;27;20535;-66
2022/10/09 00:54:16;;;;;;;9.40;1.85;;;8.60;99.90;;;;;;5129581;27;20058;-66
2022/10/09 00:56:42;;;;;;;7.95;2.35;;;8.60;99.90;;;;;;5148627;27;20046;-66
2022/10/09 00:59:09;;;;;;;9.93;1.88;;;8.60;99.90;;;;;;5148200;27;20034;-66
2022/10/09 01:01:35;;;;;;;9.95;1.60;;;8.60;99.90;;;;;;5148333;27;20054;-66
2022/10/09 01:04:00;;;;;;;9.82;1.85;;;8.60;99.90;;;;;;5130272;27;20038;-71
2022/10/09 01:06:35;;;;;;;5.57;1.58;;;8.60;99.90;;;;;;5128197;27;20046;-68
2022/10/09 01:09:07;;;;;;;8.82;1.67;;;8.50;99.90;;;;;;5146720;27;20058;-66
2022/10/09 01:11:57;;;;;;;5.00;1.50;;;8.50;99.90;;;;;;5135763;27;20046;-66
2022/10/09 01:14:42;;;;;;;4.97;1.52;;;8.50;99.90;;;;;;5129691;27;20038;-66
2022/10/09 01:17:36;;;;;;;12.35;1.65;;;8.50;99.90;;;;;;5148750;27;20046;-65
2022/10/09 01:20:32;;;;;;;8.52;1.60;;;8.40;99.90;;;;;;5146321;27;20039;-66
2022/10/09 01:23:11;;;;;;;7.50;1.70;;;8.30;99.90;;;;;;5148049;27;20043;-66
2022/10/09 01:26:07;;;;;;;12.13;2.45;;;8.30;99.90;;;;;;5148194;27;20392;-66
2022/10/09 01:28:37;;;;;;;9.80;2.65;;;8.30;99.90;;;;;;5135404;27;20552;-66
2022/10/09 01:31:05;;;;;;;11.15;1.80;;;8.30;99.90;;;;;;5148110;27;20061;-66
2022/10/09 01:33:32;;;;;;;8.13;1.65;;;8.30;99.90;;;;;;5091451;27;20472;-65
2022/10/09 01:35:59;;;;;;;8.85;1.70;;;8.30;99.90;;;;;;5141744;27;20078;-66
2022/10/09 01:38:28;;;;;;;7.43;1.75;;;8.20;99.90;;;;;;5148547;27;20117;-66
2022/10/09 01:40:55;;;;;;;5.97;1.60;;;8.20;99.90;;;;;;5147246;27;20039;-66
2022/10/09 01:43:20;;;;;;;5.28;1.50;;;8.20;99.90;;;;;;5129810;27;20066;-65
2022/10/09 01:45:47;;;;;;;5.00;1.45;;;8.10;99.90;;;;;;5146791;27;20484;-67
2022/10/09 01:48:21;;;;;;;8.73;1.83;;;8.20;99.90;;;;;;5148523;27;20039;-66
2022/10/09 01:50:54;;;;;;;5.45;1.35;;;8.20;99.90;;;;;;5146239;27;20469;-66
2022/10/09 01:53:22;;;;;;;5.10;1.30;;;8.20;99.90;;;;;;5148349;27;20107;-66
2022/10/09 01:56:16;;;;;;;7.90;1.42;;;8.10;99.90;;;;;;5129297;27;20058;-67
2022/10/09 01:58:56;;;;;;;10.13;1.60;;;8.00;99.90;;;;;;5127998;27;20078;-66
2022/10/09 02:01:27;;;;;;;5.72;1.80;;;7.90;99.90;;;;;;5147124;27;20045;-66
2022/10/09 02:03:56;;;;;;;12.15;2.10;;;7.90;99.90;;;;;;5147336;27;20077;-66
2022/10/09 02:06:23;;;;;;;6.32;1.55;;;7.80;99.90;;;;;;5148114;27;20063;-66
2022/10/09 02:08:51;;;;;;;6.70;1.35;;;7.90;99.90;;;;;;5151917;27;20042;-66
2022/10/09 02:11:17;;;;;;;10.63;1.73;;;7.80;99.90;;;;;;5150900;27;20122;-66
2022/10/09 02:13:45;;;;;;;11.88;2.45;;;7.80;99.90;;;;;;5133366;27;20119;-66
2022/10/09 02:16:34;;;;;;;4.78;1.63;;;7.80;99.90;;;;;;5132217;27;20038;-66
2022/10/09 02:19:03;;;;;;;7.57;1.30;;;7.80;99.90;;;;;;5152502;27;20042;-66
2022/10/09 02:21:33;;;;;;;7.40;1.55;;;7.80;99.90;;;;;;5132809;27;20108;-66
2022/10/09 02:24:00;;;;;;;;;;;7.70;99.90;;;;;;5133304;27;20047;-66
2022/10/09 02:26:26;;;;;;;11.85;1.60;;;7.70;99.90;;;;;;5133061;27;20009;-66
2022/10/09 02:28:52;;;;;;;8.48;1.60;;;7.70;99.90;;;;;;5131771;27;20634;-66
2022/10/09 02:31:29;;;;;;;11.00;1.88;;;7.70;99.90;;;;;;5151806;27;20142;-66
2022/10/09 02:34:00;;;;;;;7.53;1.60;;;7.60;99.90;;;;;;5132517;27;20122;-66
2022/10/09 02:36:27;;;;;;;6.18;1.40;;;7.60;99.90;;;;;;5115595;27;20049;-66
2022/10/09 02:38:54;;;;;;;5.13;1.50;;;7.60;99.90;;;;;;5150686;27;20388;-66
2022/10/09 02:41:20;;;;;;;9.05;1.60;;;7.60;99.90;;;;;;5150845;27;20042;-66
2022/10/09 02:43:45;;;;;;;6.80;1.30;;;7.50;99.90;;;;;;5150881;27;20054;-66
2022/10/09 02:46:11;;;;;;;6.80;1.75;;;7.50;99.90;;;;;;5150712;27;20053;-66
2022/10/09 02:48:37;;;;;;;8.65;1.70;;;7.50;99.90;;;;;;5132719;27;20031;-66
2022/10/09 02:51:03;;;;;;;6.75;1.80;;;7.50;99.90;;;;;;5132080;27;20046;-66
2022/10/09 02:53:29;;;;;;;5.85;1.40;;;7.40;99.90;;;;;;5132945;27;20048;-66
2022/10/09 02:55:55;;;;;;;6.07;1.42;;;7.40;99.90;;;;;;5150712;27;20081;-66
2022/10/09 02:58:21;;;;;;;12.55;1.77;;;7.40;99.90;;;;;;5132400;27;20089;-66
2022/10/09 03:00:48;;;;;;;6.72;1.92;;;7.30;99.90;;;;;;5151220;27;20419;-66
2022/10/09 03:03:14;;;;;;;9.80;1.77;;;7.30;99.90;;;;;;5144688;27;20344;-66
2022/10/09 03:05:40;;;;;;;10.95;1.60;;;7.30;99.90;;;;;;5115331;27;20385;-66
2022/10/09 03:08:05;;;;;;;7.22;1.50;;;7.30;99.90;;;;;;5150286;27;20042;-66
2022/10/09 03:10:31;;;;;;;4.72;1.60;;;7.30;99.90;;;;;;5118079;27;20162;-66
2022/10/09 03:12:57;;;;;;;9.25;2.15;;;7.30;99.90;;;;;;5114184;27;20117;-66
2022/10/09 03:15:23;;;;;;;7.20;2.03;;;7.30;99.90;;;;;;5151314;27;20319;-67
2022/10/09 03:17:49;;;;;;;6.47;1.95;;;7.40;99.90;;;;;;5131298;27;20049;-66
2022/10/09 03:20:15;;;;;;;6.65;1.63;;;7.40;99.90;;;;;;5130887;27;20043;-67
2022/10/09 03:22:40;;;;;;;7.20;2.05;;;7.50;99.90;;;;;;5150659;27;20062;-67
2022/10/09 03:25:07;;;;;;;7.55;1.65;;;7.50;99.90;;;;;;5149316;27;20054;-66
2022/10/09 03:27:32;;;;;;;7.60;1.60;;;7.50;99.90;;;;;;5132112;27;20061;-67
2022/10/09 03:29:58;;;;;;;6.22;1.55;;;7.60;99.90;;;;;;5149707;27;20039;-66
2022/10/09 03:32:24;;;;;;;4.57;1.48;;;7.60;99.90;;;;;;5132490;27;20043;-66
2022/10/09 03:34:50;;;;;;;9.18;1.90;;;7.60;99.90;;;;;;5149570;27;20441;-68
2022/10/09 03:37:17;;;;;;;12.07;1.90;;;7.60;99.90;;;;;;5131603;27;20403;-66
2022/10/09 03:39:42;;;;;;;7.18;1.85;;;7.60;99.90;;;;;;5150300;27;20043;-67
2022/10/09 03:42:08;;;;;;;6.68;1.70;;;7.60;99.90;;;;;;5150075;27;20046;-75
2022/10/09 03:44:34;;;;;;;6.85;1.23;;;7.60;99.90;;;;;;5150352;27;20035;-66
2022/10/09 03:47:00;;;;;;;6.18;1.55;;;7.50;99.90;;;;;;5149246;27;20057;-66
2022/10/09 03:49:25;;;;;;;6.72;1.45;;;7.40;99.90;;;;;;5132121;27;20381;-66
2022/10/09 03:51:51;;;;;;;5.10;1.50;;;7.30;99.90;;;;;;5148665;27;20043;-66
2022/10/09 03:54:17;;;;;;;10.52;2.15;;;7.30;99.90;;;;;;5150246;27;20075;-66
2022/10/09 03:56:42;;;;;;;5.05;1.30;;;7.20;99.90;;;;;;5149342;27;20046;-66
2022/10/09 03:59:09;;;;;;;5.75;1.77;;;7.20;99.90;;;;;;5130967;27;20503;-66
2022/10/09 04:01:35;;;;;;;8.50;1.50;;;7.10;99.90;;;;;;5114340;27;20043;-67
2022/10/09 04:04:01;;;;;;;6.30;1.60;;;7.10;99.90;;;;;;5129380;27;20035;-70
2022/10/09 04:06:26;;;;;;;5.05;1.90;;;7.00;99.90;;;;;;5147939;27;20058;-74
2022/10/09 04:08:52;;;;;;;13.73;1.80;;;7.00;99.90;;;;;;5147079;27;20051;-67
2022/10/09 04:11:18;;;;;;;11.23;1.65;;;6.90;99.90;;;;;;5117686;27;20045;-67
2022/10/09 04:13:44;;;;;;;6.30;1.50;;;6.90;99.90;;;;;;5130267;27;20074;-66
2022/10/09 04:16:11;;;;;;;6.07;1.83;;;6.90;99.90;;;;;;5149803;27;20572;-66
2022/10/09 04:18:39;;;;;;;9.13;1.95;;;6.90;99.90;;;;;;5131333;27;20396;-66
2022/10/09 04:21:05;;;;;;;9.93;2.40;;;6.90;99.90;;;;;;5127784;27;20038;-66
2022/10/09 04:23:31;;;;;;;7.57;1.55;;;6.80;99.90;;;;;;5130896;27;20063;-66
2022/10/09 04:25:58;;;;;;;7.22;1.90;;;6.80;99.90;;;;;;5146825;27;20038;-66
2022/10/09 04:28:29;;;;;;;7.00;1.98;;;6.70;99.90;;;;;;5130954;27;20123;-66
2022/10/09 04:30:56;;;;;;;4.43;1.48;;;6.70;99.90;;;;;;5147595;27;20053;-66
2022/10/09 04:33:22;;;;;;;11.77;1.88;;;6.60;99.90;;;;;;5149479;27;20035;-66
2022/10/09 04:35:50;;;;;;;8.73;2.10;;;6.60;99.90;;;;;;5130475;27;20035;-66
2022/10/09 04:38:16;;;;;;;6.55;2.25;;;6.50;99.90;;;;;;5129435;27;20085;-66
2022/10/09 04:40:42;;;;;;;5.20;1.52;;;6.50;99.90;;;;;;5149184;27;20070;-86
2022/10/09 04:43:07;;;;;;;11.00;1.70;;;6.50;99.90;;;;;;5111951;27;20400;-66
2022/10/09 04:45:38;;;;;;;7.10;1.88;;;6.50;99.90;;;;;;5133498;27;20078;-66
2022/10/09 04:48:04;;;;;;;5.20;1.60;;;6.40;99.90;;;;;;5149020;27;20043;-66
2022/10/09 04:50:29;;;;;;;7.65;1.90;;;6.50;99.90;;;;;;5149160;27;20049;-67
2022/10/09 04:52:55;;;;;;;8.30;2.00;;;6.40;99.90;;;;;;5129800;27;20046;-66
2022/10/09 04:55:21;;;;;;;9.90;1.90;;;6.50;99.90;;;;;;5128994;27;20039;-67
2022/10/09 04:57:46;;;;;;;8.65;2.75;;;6.50;99.90;;;;;;5130527;27;20098;-66
2022/10/09 05:00:13;;;;;;;12.05;2.40;;;6.50;99.90;;;;;;5147483;27;20049;-67
2022/10/09 05:02:38;;;;;;;7.68;1.80;;;6.50;99.90;;;;;;5148908;27;20436;-66
2022/10/09 05:05:04;;;;;;;6.57;2.17;;;6.50;99.90;;;;;;5146976;27;20051;-67
2022/10/09 05:07:30;;;;;;;13.98;2.55;;;6.50;99.90;;;;;;5149478;27;20034;-66
2022/10/09 05:09:56;;;;;;;10.20;2.55;;;6.50;99.90;;;;;;5119191;27;20057;-66
2022/10/09 05:12:22;;;;;;;10.05;2.70;;;6.50;99.90;;;;;;5143729;27;20265;-67
2022/10/09 05:14:48;;;;;;;3.40;2.20;;;6.50;99.90;;;;;;5129550;27;20058;-66
2022/10/09 05:17:13;;;;;;;7.40;2.45;;;6.50;99.90;;;;;;5128930;27;20045;-66
2022/10/09 05:19:39;;;;;;;5.85;2.65;;;6.40;99.90;;;;;;5126691;27;20047;-66
2022/10/09 05:22:05;;;;;;;7.88;2.22;;;6.40;99.90;;;;;;5137990;27;20094;-66
2022/10/09 05:24:31;;;;;;;9.52;2.53;;;6.40;99.90;;;;;;5148433;27;20074;-66
2022/10/09 05:26:57;;;;;;;7.03;2.80;;;6.40;99.90;;;;;;5128182;27;20078;-67
2022/10/09 05:29:22;;;;;;;13.60;3.42;;;6.40;99.90;;;;;;5129925;27;20118;-67
2022/10/09 05:31:48;;;;;;;14.15;3.67;;;6.40;99.90;;;;;;5147794;27;20049;-67
2022/10/09 05:34:14;;;;;;;6.97;2.70;;;6.40;99.90;;;;;;5125577;27;20172;-67
2022/10/09 05:36:39;;;;;;;7.15;2.70;;;6.40;99.90;;;;;;5147416;27;20047;-66
2022/10/09 05:39:05;;;;;;;7.05;2.90;;;6.40;99.90;;;;;;5128198;27;20447;-67
2022/10/09 05:41:31;;;;;;;14.75;2.67;;;6.40;99.90;;;;;;5128942;27;20042;-73
2022/10/09 05:44:01;;;;;;;8.50;2.60;;;6.40;99.90;;;;;;5146351;27;20159;-66
2022/10/09 05:46:28;;;;;;;15.20;2.55;;;6.40;99.90;;;;;;5148271;27;20529;-66
2022/10/09 05:48:59;;;;;;;6.88;2.42;;;6.30;99.90;;;;;;5128384;27;20042;-67
2022/10/09 05:51:27;;;;;;;5.80;2.80;;;6.30;99.90;;;;;;5129232;27;20046;-67
2022/10/09 05:53:54;;;;;;;7.97;3.22;;;6.30;99.90;;;;;;5147886;27;20519;-67
2022/10/09 05:56:29;;;;;;;6.00;2.60;;;6.20;99.90;;;;;;5128305;27;20604;-67
2022/10/09 05:58:58;;;;;;;8.57;3.15;;;6.30;99.90;;;;;;5134671;27;20083;-67
2022/10/09 06:01:30;;;;;;;7.65;3.03;;;6.30;99.90;;;;;;5147350;27;20038;-67
2022/10/09 06:03:58;;;;;;;7.18;2.58;;;6.30;99.90;;;;;;5147502;27;20054;-67
2022/10/09 06:06:27;;;;;;;11.43;3.38;;;6.30;99.90;;;;;;5147310;27;20038;-67
2022/10/09 06:08:53;;;;;;;9.52;3.30;;;6.30;99.90;;;;;;5126989;27;20051;-67
2022/10/09 06:11:21;;;;;;;5.00;2.72;;;6.30;99.90;;;;;;5126043;27;20042;-67
2022/10/09 06:13:47;;;;;;;10.82;4.28;;;6.30;99.90;;;;;;5146588;27;20051;-67
2022/10/09 06:16:15;;;;;;;10.30;3.05;;;6.40;99.90;;;;;;5147537;27;20571;-68
2022/10/09 06:18:45;;;;;;;6.38;3.28;;;6.30;99.90;;;;;;5146831;27;20046;-67
2022/10/09 06:21:10;;;;;;;8.60;3.53;;;6.40;99.90;;;;;;5129094;27;20478;-66
2022/10/09 06:23:36;;;;;;;11.02;3.55;;;6.40;99.90;;;;;;5144748;27;20472;-67
2022/10/09 06:26:11;;;;;;;12.30;3.78;;;6.40;99.90;;;;;;5128554;27;20057;-67
2022/10/09 06:28:37;;;;;;;8.20;3.78;;;6.40;99.90;;;;;;5139653;27;20076;-66
2022/10/09 06:31:07;;;;;;;9.93;3.35;;;6.50;99.90;;;;;;5127354;27;20087;-66
2022/10/09 06:33:35;;;;;;;7.93;3.00;;;6.60;99.90;;;;;;5129614;27;20035;-67
2022/10/09 06:36:06;;;;;;;14.30;3.72;;;6.60;99.90;;;;;;5127498;27;20068;-67
2022/10/09 06:38:36;;;;;;;12.05;3.85;;;6.70;99.90;;;;;;5147917;27;20034;-66
2022/10/09 06:41:09;;;;;;;11.38;4.18;;;6.80;99.90;;;;;;5128072;27;20043;-66
2022/10/09 06:43:35;;;;;;;8.60;3.50;;;7.00;99.90;;;;;;5133045;27;20051;-66
2022/10/09 06:46:03;;;;;;;6.50;3.50;;;7.20;99.90;;;;;;5147042;27;20476;-66
2022/10/09 06:48:30;;;;;;;10.20;3.40;;;7.40;99.90;;;;;;5127864;27;20074;-67
2022/10/09 06:51:04;;;;;;;12.95;3.90;;;7.50;99.90;;;;;;5128486;27;20076;-67
2022/10/09 06:53:29;;;;;;;13.55;3.53;;;7.60;99.90;;;;;;5148322;27;20568;-66
2022/10/09 06:55:57;;;;;;;11.43;3.65;;;7.70;99.90;;;;;;5132726;27;20047;-66
2022/10/09 06:58:23;;;;;;;7.72;3.47;;;7.80;99.90;;;;;;5132473;27;20058;-66
2022/10/09 07:00:49;;;;;;;6.93;3.22;;;7.90;99.90;;;;;;5150630;27;20053;-66
2022/10/09 07:03:15;;;;;;;9.55;3.55;;;7.90;99.90;;;;;;5132455;27;20815;-66
2022/10/09 07:05:41;;;;;;;12.75;3.85;;;8.00;99.90;;;;;;5149792;27;20439;-67
2022/10/09 07:08:06;;;;;;;9.32;3.58;;;8.10;99.90;;;;;;5150583;27;20050;-66
2022/10/09 07:10:32;;;;;;;9.98;4.13;;;8.10;99.90;;;;;;5144445;27;20074;-67
2022/10/09 07:12:58;;;;;;;12.88;3.65;;;8.20;99.90;;;;;;5147765;27;20038;-67
2022/10/09 07:15:24;;;;;;;7.90;3.83;;;8.20;99.90;;;;;;5114124;27;20411;-67
2022/10/09 07:17:49;;;;;;;18.17;4.22;;;8.30;99.90;;;;;;5115678;27;20099;-67
2022/10/09 07:20:15;;;;;;;10.43;4.10;;;8.30;99.90;;;;;;5131948;27;20721;-67
2022/10/09 07:22:41;;;;;;;11.15;3.80;;;8.40;99.90;;;;;;5150045;27;20388;-67
2022/10/09 07:25:08;;;;;;;11.50;3.65;;;8.40;99.90;;;;;;5132076;27;20045;-67
2022/10/09 07:27:34;;;;;;;12.55;4.00;;;8.50;99.90;;;;;;5130332;27;20196;-83
2022/10/09 07:30:00;;;;;;;14.13;3.53;;;8.50;99.90;;;;;;5150660;27;20044;-67
2022/10/09 07:32:26;;;;;;;9.43;3.50;;;8.60;99.90;;;;;;5148349;27;20123;-67
2022/10/09 07:34:51;;;;;;;9.50;3.63;;;8.60;99.90;;;;;;5132272;27;20066;-67
2022/10/09 07:37:17;;;;;;;12.35;3.70;;;8.60;99.90;;;;;;5130498;27;20042;-66
2022/10/09 07:39:43;;;;;;;9.65;3.42;;;8.70;99.90;;;;;;5149725;27;20050;-68
2022/10/09 07:42:09;;;;;;;14.93;3.75;;;8.90;99.90;;;;;;5113726;27;20133;-67
2022/10/09 07:44:34;;;;;;;7.78;3.03;;;9.00;99.90;;;;;;5113351;27;20053;-66
2022/10/09 07:47:00;;;;;;;6.05;3.00;;;9.10;99.90;;;;;;5120631;27;20057;-80
2022/10/09 07:49:26;;;;;;;9.77;3.47;;;9.40;99.90;;;;;;5130270;27;20550;-68
2022/10/09 07:51:51;;;;;;;13.05;3.53;;;9.60;99.90;;;;;;5131437;27;20165;-66
2022/10/09 07:54:17;;;;;;;12.55;3.42;;;9.70;99.90;;;;;;5148756;27;20490;-67
2022/10/09 07:56:43;;;;;;;7.82;3.50;;;9.90;99.90;;;;;;5131208;27;20493;-67
2022/10/09 07:59:15;;;;;;;12.13;3.70;;;10.10;99.90;;;;;;5113236;27;20066;-67
2022/10/09 08:01:41;;;;;;;17.65;4.28;;;10.30;99.90;;;;;;5130166;27;20457;-66
2022/10/09 08:04:07;;;;;;;9.10;3.20;;;10.40;99.90;;;;;;5130282;27;20121;-84
2022/10/09 08:06:33;;;;;;;8.57;3.22;;;10.50;99.90;;;;;;5128736;27;20047;-67
2022/10/09 08:09:01;;;;;;;11.60;3.58;;;10.60;99.90;;;;;;5148074;27;20051;-67
2022/10/09 08:11:27;;;;;;;8.48;2.70;;;10.80;99.90;;;;;;5096527;27;20071;-67
2022/10/09 08:13:54;;;;;;;8.55;3.05;;;10.90;99.90;;;;;;5125132;27;20129;-66
2022/10/09 08:16:21;;;;;;;9.38;3.10;;;10.90;99.90;;;;;;5145879;27;20373;-66
2022/10/09 08:18:47;;;;;;;7.13;3.28;;;10.90;99.90;;;;;;5130304;27;20496;-66
2022/10/09 08:21:16;;;;;;;7.40;3.40;;;11.10;99.90;;;;;;5148711;27;20513;-80
2022/10/09 08:23:43;;;;;;;17.67;3.20;;;11.20;99.90;;;;;;5129103;27;20046;-67
2022/10/09 08:26:17;;;;;;;14.27;3.33;;;11.40;99.90;;;;;;5148142;27;20069;-67
2022/10/09 08:28:48;;;;;;;15.18;3.50;;;11.50;99.90;;;;;;5129124;27;20046;-67
2022/10/09 08:31:16;;;;;;;6.38;2.95;;;11.60;99.90;;;;;;5147943;27;20107;-66
2022/10/09 08:33:42;;;;;;;8.93;3.00;;;11.70;99.90;;;;;;5119742;27;20384;-68
2022/10/09 08:36:10;;;;;;;10.13;2.80;;;11.80;99.90;;;;;;5136088;27;20114;-68
2022/10/09 08:38:37;;;;;;;8.52;3.03;;;11.90;99.90;;;;;;5114915;27;20078;-67
2022/10/09 08:41:13;;;;;;;9.35;2.45;;;11.90;99.90;;;;;;5141952;27;20042;-67
2022/10/09 08:43:42;;;;;;;9.20;2.85;;;12.00;99.90;;;;;;5130712;27;20046;-68
2022/10/09 08:46:29;;;;;;;16.73;3.47;;;12.10;99.90;;;;;;5123906;27;20046;-66
2022/10/09 08:48:56;;;;;;;8.90;3.05;;;12.10;99.90;;;;;;5143902;27;20053;-85
2022/10/09 08:51:28;;;;;;;12.15;2.78;;;12.20;99.90;;;;;;5148986;27;20035;-66
2022/10/09 08:54:23;;;;;;;12.73;2.88;;;12.30;99.90;;;;;;5128964;27;20053;-67
2022/10/09 08:56:51;;;;;;;6.85;2.47;;;12.40;99.90;;;;;;5129937;27;20043;-67
2022/10/09 08:59:17;;;;;;;6.25;2.28;;;12.40;99.90;;;;;;5147446;27;20047;-67
2022/10/09 09:02:06;;;;;;;8.57;2.17;;;12.40;99.90;;;;;;5129606;27;20042;-66
2022/10/09 09:05:12;;;;;;;12.40;2.63;;;12.50;99.90;;;;;;5149328;27;20095;-66
2022/10/09 09:07:49;;;;;;;7.72;2.70;;;12.50;99.90;;;;;;5107126;27;20389;-67
2022/10/09 09:10:42;;;;;;;14.05;2.45;;;12.60;99.90;;;;;;5114103;27;20046;-77
2022/10/09 09:13:23;;;;;;;12.63;2.63;;;12.70;99.90;;;;;;5134964;27;20042;-83
2022/10/09 09:16:05;;;;;;;9.73;1.98;;;12.80;99.90;;;;;;5130265;27;20463;-71
2022/10/09 09:18:58;;;;;;;11.32;2.08;;;12.90;99.90;;;;;;5149509;27;20042;-67
2022/10/09 09:21:34;;;;;;;6.35;1.90;;;13.00;99.90;;;;;;5147024;27;20053;-68
2022/10/09 09:24:04;;;;;;;6.40;1.90;;;13.10;99.90;;;;;;5147167;27;20178;-67
2022/10/09 09:26:29;;;;;;;6.68;2.40;;;13.20;99.90;;;;;;5129622;27;20344;-68
2022/10/09 09:29:01;;;;;;;11.13;2.25;;;13.30;99.90;;;;;;5124986;27;20043;-67
2022/10/09 09:31:35;;;;;;;13.93;2.47;;;13.40;99.90;;;;;;5145947;27;20065;-67
2022/10/09 09:34:37;;;;;;;9.93;2.30;;;13.50;99.90;;;;;;5128292;27;20046;-68
2022/10/09 09:37:03;;;;;;;9.98;1.95;;;13.50;99.90;;;;;;5128696;27;20046;-68
2022/10/09 09:39:32;;;;;;;8.27;1.58;;;13.70;99.90;;;;;;5129363;27;20046;-69
2022/10/09 09:42:09;;;;;;;9.18;1.60;;;13.70;99.90;;;;;;5129018;27;20177;-68
2022/10/09 09:44:40;;;;;;;8.65;1.75;;;13.80;99.90;;;;;;5123850;27;20049;-78
2022/10/09 09:47:16;;;;;;;8.77;2.25;;;13.90;99.90;;;;;;5147751;27;20038;-67
2022/10/09 09:50:03;;;;;;;8.40;1.48;;;14.00;99.90;;;;;;5147781;27;20049;-68
2022/10/09 09:52:34;;;;;;;3.95;1.40;;;14.10;99.90;;;;;;5123243;27;20038;-69
2022/10/09 09:54:59;;;;;;;4.22;1.90;;;14.10;99.90;;;;;;5143809;27;20039;-68
2022/10/09 09:57:34;;;;;;;8.48;2.15;;;14.20;99.90;;;;;;5127197;27;20083;-69
2022/10/09 10:00:17;;;;;;;9.48;2.33;;;14.30;99.90;;;;;;5126102;27;20043;-67
2022/10/09 10:02:43;;;;;;;6.45;1.65;;;14.40;99.90;;;;;;5145125;27;20122;-68
2022/10/09 10:05:25;;;;;;;7.63;2.13;;;14.40;99.90;;;;;;5145756;27;20477;-67
2022/10/09 10:07:51;;;;;;;6.18;1.80;;;14.50;99.90;;;;;;5126910;27;20043;-67
2022/10/09 10:10:27;;;;;;;8.50;2.10;;;14.50;99.90;;;;;;5101196;27;20039;-69
2022/10/09 10:12:59;;;;;;;6.32;2.00;;;14.60;99.90;;;;;;5128146;27;20069;-69
2022/10/09 10:15:32;;;;;;;14.05;3.00;;;14.60;99.90;;;;;;5128831;27;20050;-68
2022/10/09 10:18:02;;;;;;;5.80;1.77;;;14.50;99.90;;;;;;5129206;27;20049;-77
2022/10/09 10:20:31;;;;;;;7.05;1.80;;;14.50;99.90;;;;;;5128075;27;20107;-68
2022/10/09 10:22:58;;;;;;;8.68;2.30;;;14.50;99.90;;;;;;5128703;27;20104;-87
2022/10/09 10:25:30;;;;;;;9.00;2.40;;;14.50;99.90;;;;;;5136106;27;20412;-69
2022/10/09 10:28:12;;;;;;;8.82;2.42;;;14.50;99.90;;;;;;5124366;27;20813;-68
2022/10/09 10:30:38;;;;;;;12.68;2.20;;;14.50;99.90;;;;;;5138006;27;20052;-68
2022/10/09 10:33:14;;;;;;;5.10;1.90;;;14.60;99.90;;;;;;5143721;27;20496;-68
2022/10/09 10:35:42;;;;;;;16.33;2.83;;;14.60;99.90;;;;;;5130672;27;20108;-70
2022/10/09 10:38:29;;;;;;;9.82;2.30;;;14.60;99.90;;;;;;5131182;27;20317;-67
2022/10/09 10:41:04;;;;;;;11.00;2.00;;;14.60;99.90;;;;;;5138818;27;20040;-72
2022/10/09 10:43:43;;;;;;;11.85;2.13;;;14.70;99.90;;;;;;5113963;27;20448;-73
2022/10/09 10:46:17;;;;;;;6.97;1.97;;;14.70;99.90;;;;;;5128523;27;20035;-67
2022/10/09 10:48:46;;;;;;;11.88;1.90;;;14.90;99.90;;;;;;5124248;27;20047;-69
2022/10/09 10:51:30;;;;;;;7.10;1.83;;;14.80;99.90;;;;;;5121050;27;20388;-67
2022/10/09 10:53:59;;;;;;;8.35;1.92;;;14.80;99.90;;;;;;5138184;27;20042;-67
2022/10/09 10:56:27;;;;;;;10.18;2.17;;;14.90;99.90;;;;;;5117654;27;20078;-67
2022/10/09 10:58:59;;;;;;;9.95;2.22;;;15.00;99.90;;;;;;5137396;27;20063;-68
2022/10/09 11:01:51;;;;;;;14.30;2.15;;;15.10;99.90;;;;;;5120750;27;20053;-67
2022/10/09 11:04:30;;;;;;;7.25;1.65;;;15.20;99.90;;;;;;5137841;27;20500;-82
2022/10/09 11:07:24;;;;;;;9.68;2.00;;;15.10;99.90;;;;;;5119966;27;20047;-70
2022/10/09 11:10:26;;;;;;;6.50;1.77;;;15.10;99.90;;;;;;5128222;27;20159;-67
2022/10/09 11:13:09;;;;;;;9.82;2.08;;;15.20;99.90;;;;;;5146273;27;20073;-67
2022/10/09 11:15:54;;;;;;;13.32;1.65;;;15.30;99.90;;;;;;5119723;27;20050;-75
2022/10/09 11:18:43;;;;;;;8.57;1.83;;;15.40;99.90;;;;;;5129626;27;20046;-67
2022/10/09 11:21:16;;;;;;;;;;;15.50;98.50;;;;;;5150154;27;20035;-68
2022/10/09 11:24:19;;;;;;;8.32;1.45;;;15.50;98.80;;;;;;5131026;27;19923;-77
2022/10/09 11:26:51;;;;;;;6.60;1.50;;;15.60;95.70;;;;;;5132162;27;20065;-67
2022/10/09 11:29:19;;;;;;;5.10;1.65;;;15.60;94.50;;;;;;5131179;27;20095;-67
2022/10/09 11:31:52;;;;;;;11.82;1.95;;;15.60;97.50;;;;;;5131492;27;20099;-68
2022/10/09 11:34:27;;;;;;;7.35;1.70;;;15.60;94.10;;;;;;5148913;27;20464;-67
2022/10/09 11:36:54;;;;;;;7.18;1.80;;;15.60;93.20;;;;;;5131147;27;20039;-86
2022/10/09 11:39:27;;;;;;;7.32;1.70;;;15.60;91.40;;;;;;5148382;27;20050;-68
2022/10/09 11:41:54;;;;;;;7.20;1.52;;;15.60;92.00;;;;;;5131967;27;20043;-79
2022/10/09 11:44:58;;;;;;;11.02;1.50;;;15.60;92.50;;;;;;5131668;27;20392;-67
2022/10/09 11:47:37;;;;;;;6.70;1.58;;;15.70;84.40;;;;;;5142062;27;20130;-68
2022/10/09 11:50:12;;;;;;;6.97;1.90;;;15.70;84.50;;;;;;5131901;27;20444;-80
2022/10/09 11:52:37;;;;;;;6.43;1.20;;;15.70;85.50;;;;;;5122745;27;20457;-67
2022/10/09 11:55:15;;;;;;;9.38;1.45;;;15.60;84.80;;;;;;5149163;27;20046;-68
2022/10/09 11:57:41;;;;;;;7.78;1.58;;;15.70;91.80;;;;;;5131912;27;20384;-74
2022/10/09 12:00:08;;;;;;;8.60;1.27;;;15.80;91.10;;;;;;5148435;27;20043;-68
2022/10/09 12:02:35;;;;;;;4.40;1.20;;;15.80;83.20;;;;;;5113756;27;20553;-68
2022/10/09 12:05:14;;;;;;;5.55;1.20;;;15.90;86.80;;;;;;5148422;27;20511;-81
2022/10/09 12:07:40;;;;;;;4.90;1.60;;;16.00;84.80;;;;;;5116011;27;20664;-68
2022/10/09 12:10:31;;;;;;;7.05;1.45;;;16.10;85.30;;;;;;5119752;27;20122;-68
2022/10/09 12:13:05;;;;;;;8.48;1.63;;;16.20;84.20;;;;;;5121908;27;20118;-68
2022/10/09 12:15:39;;;;;;;6.25;1.27;;;16.30;80.00;;;;;;5131318;27;20046;-69
2022/10/09 12:18:44;;;;;;;6.93;1.52;;;16.30;75.40;;;;;;5147628;27;20038;-68
2022/10/09 12:21:31;;;;;;;9.30;1.88;;;16.30;75.10;;;;;;5027860;28;20511;-68
2022/10/09 12:23:57;;;;;;;9.05;1.63;;;16.30;79.60;;;;;;5027706;28;20184;-75
2022/10/09 12:26:24;;;;;;;6.75;1.73;;;16.40;74.50;;;;;;5064987;27;20082;-68
2022/10/09 12:29:01;;;;;;;5.38;1.48;;;16.40;74.50;;;;;;5130628;27;20027;-68
2022/10/09 12:31:40;;;;;;;9.82;1.40;;;16.50;71.00;;;;;;5129960;27;20141;-68
2022/10/09 12:34:15;;;;;;;7.47;1.48;;;16.50;63.50;;;;;;5130169;27;20054;-68
2022/10/09 12:36:40;;;;;;;7.35;1.45;;;16.50;71.60;;;;;;5149154;27;20129;-76
2022/10/09 12:39:32;;;;;;;8.82;1.23;;;16.60;68.10;;;;;;5129206;27;20123;-69
2022/10/09 12:41:58;;;;;;;8.93;1.77;;;16.70;70.90;;;;;;5138918;27;20064;-69
2022/10/09 12:44:33;;;;;;;10.13;1.85;;;16.70;72.60;;;;;;5122953;27;20061;-68
2022/10/09 12:47:16;;;;;;;3.97;1.13;;;16.80;65.80;;;;;;5147027;27;20526;-70
2022/10/09 12:49:52;;;;;;;6.47;1.20;;;16.80;63.60;;;;;;5129839;27;20055;-68
2022/10/09 12:52:18;;;;;;;8.68;1.50;;;16.70;62.90;;;;;;5129251;27;20070;-72
2022/10/09 12:54:43;;;;;;;6.88;1.20;;;16.80;61.20;;;;;;5129848;27;20449;-69
2022/10/09 12:57:13;;;;;;;6.38;1.50;;;16.60;60.70;;;;;;5129706;27;20507;-72
2022/10/09 12:59:39;;;;;;;4.22;1.35;;;16.50;58.50;;;;;;5129668;27;20035;-68
2022/10/09 13:02:10;;;;;;;7.43;1.40;;;16.40;60.50;;;;;;5129933;27;20434;-67
2022/10/09 13:04:37;;;;;;;7.07;1.35;;;16.40;61.60;;;;;;5128342;27;20047;-68
2022/10/09 13:07:17;;;;;;;5.82;0.98;;;16.40;61.20;;;;;;5130117;27;20050;-69
2022/10/09 13:09:43;;;;;;;3.47;0.85;;;16.40;50.90;;;;;;5120518;27;20103;-68